createdAt,value
2022-08-17T00:00:40.542Z,75.96
2022-08-17T00:05:48.668Z,75.99
2022-08-17T00:10:56.632Z,77.52
2022-08-17T00:16:04.698Z,79.08
2022-08-17T00:21:11.238Z,78.92
2022-08-17T00:26:19.598Z,80.56
2022-08-17T00:31:28.034Z,80.19
2022-08-17T00:36:36.926Z,78.79
2022-08-17T00:41:44.548Z,77.58
2022-08-17T00:46:51.738Z,77.83
2022-08-17T00:51:59.443Z,79.14
2022-08-17T00:57:07.048Z,78.34
2022-08-17T01:02:15.886Z,77.3
2022-08-17T01:07:23.434Z,78.82
2022-08-17T01:12:31.493Z,77.89
2022-08-17T01:17:38.813Z,76.75
2022-08-17T01:22:47.763Z,77.25
2022-08-17T01:37:06.310Z,79.24
2022-08-17T01:42:12.798Z,80.26999
2022-08-17T01:47:22.328Z,80.0
2022-08-17T01:52:28.382Z,80.09
2022-08-17T01:57:36.215Z,80.2
2022-08-17T02:02:43.431Z,81.66
2022-08-17T02:07:50.568Z,83.01001
2022-08-17T02:12:58.786Z,82.86
2022-08-17T02:18:06.307Z,83.89
2022-08-17T02:23:13.499Z,83.12
2022-08-17T02:28:21.127Z,82.72
2022-08-17T02:33:27.904Z,83.43
2022-08-17T02:38:36.895Z,83.56
2022-08-17T02:43:44.236Z,84.01999
2022-08-17T02:48:52.340Z,83.93001
2022-08-17T02:53:59.964Z,84.35
2022-08-17T02:59:07.515Z,84.55001
2022-08-17T03:04:14.358Z,84.75
2022-08-17T03:09:22.324Z,85.7
2022-08-17T03:14:30.274Z,85.88
2022-08-17T03:19:37.322Z,85.2
2022-08-17T03:24:44.630Z,86.11
2022-08-17T03:29:52.213Z,86.14
2022-08-17T03:35:00.167Z,85.57
2022-08-17T03:40:07.292Z,85.48
2022-08-17T03:45:14.487Z,86.64001
2022-08-17T03:50:22.870Z,86.01001
2022-08-17T03:55:31.019Z,86.09
2022-08-17T04:00:37.334Z,86.25
2022-08-17T04:05:45.174Z,86.47
2022-08-17T04:10:54.046Z,86.72
2022-08-17T04:16:02.316Z,86.61
2022-08-17T04:21:10.131Z,87.54001
2022-08-17T04:26:17.997Z,86.42
2022-08-17T04:31:25.637Z,85.37001
2022-08-17T04:36:34.705Z,83.58001
2022-08-17T04:41:44.265Z,82.54001
2022-08-17T04:46:51.691Z,79.63
2022-08-17T04:52:07.261Z,77.21
2022-08-17T04:57:15.385Z,76.02
2022-08-17T05:02:22.315Z,72.4
2022-08-17T05:07:29.487Z,72.27
2022-08-17T05:12:37.382Z,71.08
2022-08-17T05:17:44.771Z,70.02
2022-08-17T05:22:52.497Z,69.0
2022-08-17T05:27:59.611Z,68.61
2022-08-17T05:33:07.867Z,67.13
2022-08-17T05:38:15.857Z,62.69
2022-08-17T05:43:24.039Z,61.0
2022-08-17T05:48:38.086Z,60.28
2022-08-17T05:53:45.854Z,58.55
2022-08-17T05:58:54.062Z,58.39
2022-08-17T06:04:01.887Z,58.18
2022-08-17T06:09:09.189Z,56.94
2022-08-17T06:14:16.983Z,55.92
2022-08-17T06:19:23.933Z,53.58
2022-08-17T06:24:31.524Z,50.39
2022-08-17T06:29:38.146Z,48.32
2022-08-17T06:34:45.748Z,44.94
2022-08-17T06:39:53.780Z,40.25
2022-08-17T06:45:00.391Z,38.42
2022-08-17T06:50:07.618Z,36.59
2022-08-17T06:55:15.282Z,35.72
2022-08-17T07:00:22.883Z,34.92
2022-08-17T07:05:31.093Z,35.02
2022-08-17T07:15:40.967Z,32.85
2022-08-17T07:16:43.776Z,32.63
2022-08-17T07:21:49.869Z,31.54
2022-08-17T07:26:57.575Z,30.47
2022-08-17T07:32:06.523Z,31.17
2022-08-17T07:37:13.840Z,31.28
2022-08-17T07:42:22.813Z,31.82
2022-08-17T07:47:30.172Z,32.18
2022-08-17T07:52:37.933Z,32.04
2022-08-17T07:57:45.002Z,32.79
2022-08-17T08:02:53.336Z,32.52
2022-08-17T08:08:02.948Z,33.27
2022-08-17T08:13:11.185Z,33.48
2022-08-17T08:23:47.711Z,33.68
2022-08-17T08:28:55.834Z,32.94
2022-08-17T08:34:03.453Z,33.48
2022-08-17T08:39:12.735Z,34.06
2022-08-17T08:44:20.653Z,33.66
2022-08-17T08:49:28.882Z,32.81
2022-08-17T08:54:37.288Z,31.52
2022-08-17T08:59:45.820Z,31.03
2022-08-17T09:04:54.242Z,29.81
2022-08-17T09:10:01.901Z,29.64
2022-08-17T09:15:09.865Z,29.75
2022-08-17T09:20:16.895Z,29.23
2022-08-17T09:25:24.359Z,28.9
2022-08-17T09:30:32.110Z,29.19
2022-08-17T09:35:40.387Z,28.4
2022-08-17T09:40:48.194Z,29.16
2022-08-17T09:45:56.614Z,29.2
2022-08-17T09:51:04.798Z,29.62
2022-08-17T09:56:12.412Z,29.92
2022-08-17T10:01:20.286Z,29.68
2022-08-17T10:06:27.413Z,29.21
2022-08-17T10:11:35.583Z,29.18
2022-08-17T10:16:43.710Z,28.87
2022-08-17T10:21:52.137Z,29.39
2022-08-17T10:26:59.013Z,28.78
2022-08-17T10:32:06.140Z,27.84
2022-08-17T10:37:13.813Z,27.76
2022-08-17T10:42:22.161Z,27.66
2022-08-17T10:47:29.249Z,26.97
2022-08-17T10:52:38.076Z,27.08
2022-08-17T10:57:45.594Z,26.69
2022-08-17T11:02:54.935Z,26.73
2022-08-17T11:08:02.169Z,26.28
2022-08-17T11:13:09.738Z,25.33
2022-08-17T11:18:18.363Z,25.7
2022-08-17T11:23:26.301Z,26.26
2022-08-17T11:28:33.536Z,26.71
2022-08-17T11:33:41.566Z,27.07
2022-08-17T11:38:50.330Z,26.98
2022-08-17T11:43:58.296Z,26.38
2022-08-17T11:49:06.007Z,26.68
2022-08-17T11:54:14.618Z,26.04
2022-08-17T11:59:27.811Z,24.92
2022-08-17T12:04:34.407Z,24.57
2022-08-17T12:09:42.278Z,25.61
2022-08-17T12:14:48.689Z,25.68
2022-08-17T12:19:55.413Z,25.6
2022-08-17T12:25:02.497Z,26.4
2022-08-17T12:30:10.808Z,25.86
2022-08-17T12:35:17.680Z,25.34
2022-08-17T12:40:24.539Z,26.07
2022-08-17T12:45:32.059Z,26.39
2022-08-17T12:50:39.826Z,26.5
2022-08-17T12:55:46.259Z,26.44
2022-08-17T13:00:54.938Z,25.99
2022-08-17T13:06:01.864Z,25.98
2022-08-17T13:11:09.078Z,25.88
2022-08-17T13:16:16.927Z,26.58
2022-08-17T13:21:25.254Z,24.94
2022-08-17T13:26:33.548Z,24.75
2022-08-17T13:31:41.799Z,24.99
2022-08-17T13:36:49.634Z,24.55
2022-08-17T13:41:56.041Z,23.73
2022-08-17T13:47:03.920Z,23.77
2022-08-17T13:52:12.520Z,23.67
2022-08-17T13:57:20.245Z,23.04
2022-08-17T14:02:27.450Z,22.68
2022-08-17T14:07:34.326Z,22.64
2022-08-17T14:12:42.831Z,23.04
2022-08-17T14:17:50.532Z,21.59
2022-08-17T14:22:58.497Z,22.18
2022-08-17T14:28:05.353Z,21.89
2022-08-17T14:33:13.354Z,22.74
2022-08-17T14:38:22.122Z,22.9
2022-08-17T14:43:29.497Z,22.14
2022-08-17T14:48:36.746Z,22.14
2022-08-17T14:53:45.048Z,23.48
2022-08-17T14:58:52.780Z,23.0
2022-08-17T15:04:04.788Z,23.69
2022-08-17T15:09:12.505Z,25.27
2022-08-17T15:14:19.736Z,26.45
2022-08-17T15:19:27.952Z,25.62
2022-08-17T15:24:34.778Z,25.19
2022-08-17T15:29:42.723Z,25.25
2022-08-17T15:34:51.028Z,26.97
2022-08-17T15:39:58.923Z,27.58
2022-08-17T15:45:06.761Z,28.06
2022-08-17T15:50:19.663Z,28.53
2022-08-17T15:55:27.191Z,29.1
2022-08-17T16:00:34.567Z,29.94
2022-08-17T16:05:41.051Z,29.94
2022-08-17T16:10:49.851Z,30.39
2022-08-17T16:15:56.447Z,30.68
2022-08-17T16:21:04.454Z,30.77
2022-08-17T16:26:12.628Z,31.32
2022-08-17T16:31:21.273Z,32.28
2022-08-17T16:36:28.912Z,32.09
2022-08-17T16:41:37.709Z,33.3
2022-08-17T16:46:44.340Z,35.06
2022-08-17T16:51:52.538Z,35.09
2022-08-17T16:57:00.635Z,35.08
2022-08-17T17:02:08.561Z,35.26
2022-08-17T17:07:15.866Z,35.84
2022-08-17T17:12:23.683Z,36.01
2022-08-17T17:17:31.682Z,36.09
2022-08-17T17:22:39.506Z,36.58
2022-08-17T17:27:46.860Z,36.63
2022-08-17T17:32:54.657Z,36.54
2022-08-17T17:38:02.558Z,37.07
2022-08-17T17:43:09.700Z,37.68
2022-08-17T17:48:16.986Z,38.68
2022-08-17T17:53:25.042Z,38.4
2022-08-17T17:58:32.508Z,38.63
2022-08-17T18:03:40.183Z,38.89
2022-08-17T18:08:47.562Z,39.16
2022-08-17T18:13:55.689Z,39.77
2022-08-17T18:19:03.295Z,40.81
2022-08-17T18:24:10.459Z,41.32
2022-08-17T18:29:17.749Z,41.53
2022-08-17T18:34:24.587Z,42.08
2022-08-17T18:39:33.280Z,42.91
2022-08-17T18:44:40.700Z,44.66
2022-08-17T18:49:48.192Z,44.92
2022-08-17T18:54:56.719Z,45.3
2022-08-17T19:00:10.784Z,46.24
2022-08-17T19:05:17.779Z,47.06
2022-08-17T19:10:24.895Z,48.58
2022-08-17T19:15:31.444Z,49.62
2022-08-17T19:20:38.658Z,50.31
2022-08-17T19:25:46.899Z,51.2
2022-08-17T19:30:53.698Z,51.86
2022-08-17T19:36:01.442Z,51.96
2022-08-17T19:41:10.199Z,52.38
2022-08-17T19:46:17.406Z,52.1
2022-08-17T19:51:26.759Z,53.07
2022-08-17T19:56:34.182Z,53.82
2022-08-17T20:01:42.616Z,54.13
2022-08-17T20:06:52.556Z,54.84
2022-08-17T20:12:00.182Z,55.94
2022-08-17T20:17:06.812Z,56.58
2022-08-17T20:22:14.014Z,56.66
2022-08-17T20:27:22.691Z,56.86
2022-08-17T20:32:30.618Z,56.85
2022-08-17T20:37:37.601Z,56.96
2022-08-17T20:42:45.051Z,57.12
2022-08-17T20:47:53.106Z,57.93
2022-08-17T20:53:01.052Z,57.87
2022-08-17T20:58:09.313Z,56.77
2022-08-17T21:03:16.092Z,56.78
2022-08-17T21:08:23.893Z,57.4
2022-08-17T21:13:31.769Z,57.65
2022-08-17T21:18:39.405Z,59.12
2022-08-17T21:23:47.488Z,59.83
2022-08-17T21:28:54.651Z,60.73
2022-08-17T21:34:01.856Z,62.18
2022-08-17T21:39:09.925Z,63.11
2022-08-17T21:44:19.914Z,63.75
2022-08-17T21:49:26.653Z,64.15
2022-08-17T21:54:33.859Z,63.68
2022-08-17T21:59:41.707Z,63.22
2022-08-17T22:04:49.994Z,63.74
2022-08-17T22:09:58.171Z,64.16
2022-08-17T22:15:05.958Z,64.13
2022-08-17T22:20:14.010Z,64.57
2022-08-17T22:25:22.542Z,64.28
2022-08-17T22:30:29.374Z,64.78
2022-08-17T22:35:37.021Z,64.95
2022-08-17T22:40:45.383Z,64.98001
2022-08-17T22:45:53.737Z,66.02
2022-08-17T22:51:01.940Z,66.87
2022-08-17T22:56:09.218Z,67.36
2022-08-17T23:01:16.414Z,67.21
2022-08-17T23:06:23.414Z,66.98
2022-08-17T23:11:31.992Z,67.33
2022-08-17T23:16:40.577Z,67.83
2022-08-17T23:21:48.078Z,68.31
2022-08-17T23:26:55.857Z,68.61
2022-08-17T23:32:04.260Z,68.71
2022-08-17T23:37:11.342Z,68.69
2022-08-17T23:42:19.707Z,69.23
2022-08-17T23:47:27.819Z,69.14
2022-08-17T23:52:35.856Z,68.82
2022-08-17T23:57:44.135Z,68.94001
